sensor_id;sensor_type;location;lat;lon;timestamp;temperature;humidity
22456;DHT22;11395;53.204;6.502;2022-10-28T00:05:35;23.30;71.20
22456;DHT22;11395;53.204;6.502;2022-10-28T00:08:01;23.30;72.00
22456;DHT22;11395;53.204;6.502;2022-10-28T00:10:27;23.20;72.10
22456;DHT22;11395;53.204;6.502;2022-10-28T00:12:53;23.20;72.20
22456;DHT22;11395;53.204;6.502;2022-10-28T00:15:19;23.20;72.20
22456;DHT22;11395;53.204;6.502;2022-10-28T00:17:46;23.20;72.10
22456;DHT22;11395;53.204;6.502;2022-10-28T00:20:12;23.20;72.10
22456;DHT22;11395;53.204;6.502;2022-10-28T00:22:38;23.20;72.20
22456;DHT22;11395;53.204;6.502;2022-10-28T00:25:05;23.20;72.10
22456;DHT22;11395;53.204;6.502;2022-10-28T00:27:31;23.20;72.00
22456;DHT22;11395;53.204;6.502;2022-10-28T00:29:58;23.20;72.10
22456;DHT22;11395;53.204;6.502;2022-10-28T00:32:27;23.10;72.00
22456;DHT22;11395;53.204;6.502;2022-10-28T00:34:53;23.20;72.20
22456;DHT22;11395;53.204;6.502;2022-10-28T00:37:19;23.20;72.10
22456;DHT22;11395;53.204;6.502;2022-10-28T00:39:45;23.10;72.10
22456;DHT22;11395;53.204;6.502;2022-10-28T00:42:12;23.10;72.10
22456;DHT22;11395;53.204;6.502;2022-10-28T00:44:58;23.10;72.30
22456;DHT22;11395;53.204;6.502;2022-10-28T00:47:48;23.10;72.20
22456;DHT22;11395;53.204;6.502;2022-10-28T00:50:39;23.10;72.30
22456;DHT22;11395;53.204;6.502;2022-10-28T00:53:14;23.10;72.40
22456;DHT22;11395;53.204;6.502;2022-10-28T00:55:43;23.10;72.30
22456;DHT22;11395;53.204;6.502;2022-10-28T00:58:10;23.10;73.00
22456;DHT22;11395;53.204;6.502;2022-10-28T01:06:32;23.00;71.90
22456;DHT22;11395;53.204;6.502;2022-10-28T01:08:58;22.90;72.70
22456;DHT22;11395;53.204;6.502;2022-10-28T01:14:41;22.80;73.00
22456;DHT22;11395;53.204;6.502;2022-10-28T01:22:55;22.80;72.80
22456;DHT22;11395;53.204;6.502;2022-10-28T01:31:04;22.90;72.90
22456;DHT22;11395;53.204;6.502;2022-10-28T01:39:23;22.90;72.80
22456;DHT22;11395;53.204;6.502;2022-10-28T01:47:39;22.90;72.80
22456;DHT22;11395;53.204;6.502;2022-10-28T01:50:12;22.80;72.80
22456;DHT22;11395;53.204;6.502;2022-10-28T01:52:40;22.80;72.80
22456;DHT22;11395;53.204;6.502;2022-10-28T01:55:36;22.80;72.80
22456;DHT22;11395;53.204;6.502;2022-10-28T01:58:10;22.80;72.80
22456;DHT22;11395;53.204;6.502;2022-10-28T02:00:37;22.80;72.90
22456;DHT22;11395;53.204;6.502;2022-10-28T02:03:08;22.80;72.80
22456;DHT22;11395;53.204;6.502;2022-10-28T02:05:51;22.80;72.90
22456;DHT22;11395;53.204;6.502;2022-10-28T02:19:07;22.70;72.90
22456;DHT22;11395;53.204;6.502;2022-10-28T02:25:25;22.70;73.00
22456;DHT22;11395;53.204;6.502;2022-10-28T02:28:09;22.70;73.00
22456;DHT22;11395;53.204;6.502;2022-10-28T02:33:17;22.60;73.00
22456;DHT22;11395;53.204;6.502;2022-10-28T02:35:49;22.60;73.90
22456;DHT22;11395;53.204;6.502;2022-10-28T02:38:24;22.60;73.10
22456;DHT22;11395;53.204;6.502;2022-10-28T02:40:53;22.60;73.10
22456;DHT22;11395;53.204;6.502;2022-10-28T02:43:23;22.60;73.10
22456;DHT22;11395;53.204;6.502;2022-10-28T02:45:52;22.60;73.10
22456;DHT22;11395;53.204;6.502;2022-10-28T02:48:47;22.60;73.20
22456;DHT22;11395;53.204;6.502;2022-10-28T02:51:19;22.60;73.20
22456;DHT22;11395;53.204;6.502;2022-10-28T02:56:30;22.50;73.20
22456;DHT22;11395;53.204;6.502;2022-10-28T02:58:56;22.50;73.20
22456;DHT22;11395;53.204;6.502;2022-10-28T03:01:23;22.50;73.20
22456;DHT22;11395;53.204;6.502;2022-10-28T03:03:49;22.50;73.30
22456;DHT22;11395;53.204;6.502;2022-10-28T03:06:15;22.50;73.30
22456;DHT22;11395;53.204;6.502;2022-10-28T03:08:41;22.50;73.40
22456;DHT22;11395;53.204;6.502;2022-10-28T03:11:07;22.50;73.30
22456;DHT22;11395;53.204;6.502;2022-10-28T03:13:34;22.50;73.30
22456;DHT22;11395;53.204;6.502;2022-10-28T03:16:00;22.40;73.30
22456;DHT22;11395;53.204;6.502;2022-10-28T03:18:26;22.40;73.30
22456;DHT22;11395;53.204;6.502;2022-10-28T03:20:52;22.40;73.30
22456;DHT22;11395;53.204;6.502;2022-10-28T03:23:18;22.40;73.40
22456;DHT22;11395;53.204;6.502;2022-10-28T03:25:44;22.40;73.40
22456;DHT22;11395;53.204;6.502;2022-10-28T03:28:11;22.40;73.30
22456;DHT22;11395;53.204;6.502;2022-10-28T03:30:37;22.40;73.40
22456;DHT22;11395;53.204;6.502;2022-10-28T03:33:03;22.40;73.40
22456;DHT22;11395;53.204;6.502;2022-10-28T03:35:29;22.40;73.40
22456;DHT22;11395;53.204;6.502;2022-10-28T03:37:55;22.40;73.40
22456;DHT22;11395;53.204;6.502;2022-10-28T03:40:22;22.40;73.40
22456;DHT22;11395;53.204;6.502;2022-10-28T03:42:48;22.30;73.40
22456;DHT22;11395;53.204;6.502;2022-10-28T03:45:14;22.30;73.40
22456;DHT22;11395;53.204;6.502;2022-10-28T03:47:41;22.30;73.40
22456;DHT22;11395;53.204;6.502;2022-10-28T03:50:07;22.30;73.40
22456;DHT22;11395;53.204;6.502;2022-10-28T03:52:33;22.30;73.40
22456;DHT22;11395;53.204;6.502;2022-10-28T03:55:00;22.30;73.40
22456;DHT22;11395;53.204;6.502;2022-10-28T03:57:29;22.30;73.40
22456;DHT22;11395;53.204;6.502;2022-10-28T03:59:56;22.30;73.40
22456;DHT22;11395;53.204;6.502;2022-10-28T04:02:22;22.30;73.40
22456;DHT22;11395;53.204;6.502;2022-10-28T04:04:48;22.30;73.40
22456;DHT22;11395;53.204;6.502;2022-10-28T04:07:14;22.30;73.10
22456;DHT22;11395;53.204;6.502;2022-10-28T04:09:40;22.30;73.10
22456;DHT22;11395;53.204;6.502;2022-10-28T04:12:09;22.30;73.10
22456;DHT22;11395;53.204;6.502;2022-10-28T04:14:36;22.40;73.20
22456;DHT22;11395;53.204;6.502;2022-10-28T04:17:02;22.40;73.10
22456;DHT22;11395;53.204;6.502;2022-10-28T04:19:28;22.40;73.10
22456;DHT22;11395;53.204;6.502;2022-10-28T04:21:54;22.50;73.10
22456;DHT22;11395;53.204;6.502;2022-10-28T04:24:20;22.60;73.20
22456;DHT22;11395;53.204;6.502;2022-10-28T04:26:46;22.60;73.10
22456;DHT22;11395;53.204;6.502;2022-10-28T04:29:13;22.70;73.10
22456;DHT22;11395;53.204;6.502;2022-10-28T04:31:39;22.80;73.00
22456;DHT22;11395;53.204;6.502;2022-10-28T04:34:05;22.90;72.90
22456;DHT22;11395;53.204;6.502;2022-10-28T04:36:31;23.00;72.70
22456;DHT22;11395;53.204;6.502;2022-10-28T04:38:57;23.10;72.60
22456;DHT22;11395;53.204;6.502;2022-10-28T04:41:24;23.20;72.40
22456;DHT22;11395;53.204;6.502;2022-10-28T04:43:50;23.30;72.20
22456;DHT22;11395;53.204;6.502;2022-10-28T04:46:16;23.40;72.10
22456;DHT22;11395;53.204;6.502;2022-10-28T04:48:42;23.50;72.00
22456;DHT22;11395;53.204;6.502;2022-10-28T04:51:09;23.60;71.70
22456;DHT22;11395;53.204;6.502;2022-10-28T04:53:35;23.60;71.60
22456;DHT22;11395;53.204;6.502;2022-10-28T04:56:01;23.70;71.50
22456;DHT22;11395;53.204;6.502;2022-10-28T04:58:27;23.80;71.40
22456;DHT22;11395;53.204;6.502;2022-10-28T05:00:53;23.80;71.20
22456;DHT22;11395;53.204;6.502;2022-10-28T05:03:19;23.90;71.20
22456;DHT22;11395;53.204;6.502;2022-10-28T05:05:46;23.90;71.10
22456;DHT22;11395;53.204;6.502;2022-10-28T05:08:12;23.90;71.10
22456;DHT22;11395;53.204;6.502;2022-10-28T05:10:38;24.00;70.90
22456;DHT22;11395;53.204;6.502;2022-10-28T05:13:05;24.10;70.90
22456;DHT22;11395;53.204;6.502;2022-10-28T05:15:31;24.10;70.70
22456;DHT22;11395;53.204;6.502;2022-10-28T05:17:57;24.10;70.60
22456;DHT22;11395;53.204;6.502;2022-10-28T05:20:23;24.10;70.50
22456;DHT22;11395;53.204;6.502;2022-10-28T05:22:52;24.10;70.40
22456;DHT22;11395;53.204;6.502;2022-10-28T05:25:20;24.10;70.40
22456;DHT22;11395;53.204;6.502;2022-10-28T05:27:46;24.20;70.30
22456;DHT22;11395;53.204;6.502;2022-10-28T05:30:13;24.20;70.30
22456;DHT22;11395;53.204;6.502;2022-10-28T05:32:39;24.20;70.30
22456;DHT22;11395;53.204;6.502;2022-10-28T05:35:06;24.20;70.10
22456;DHT22;11395;53.204;6.502;2022-10-28T05:37:33;24.20;70.10
22456;DHT22;11395;53.204;6.502;2022-10-28T05:39:59;24.20;70.10
22456;DHT22;11395;53.204;6.502;2022-10-28T05:42:25;24.20;70.00
22456;DHT22;11395;53.204;6.502;2022-10-28T05:44:51;24.20;69.80
22456;DHT22;11395;53.204;6.502;2022-10-28T05:47:17;24.20;69.70
22456;DHT22;11395;53.204;6.502;2022-10-28T05:49:44;24.20;69.70
22456;DHT22;11395;53.204;6.502;2022-10-28T05:52:10;24.20;69.70
22456;DHT22;11395;53.204;6.502;2022-10-28T05:54:36;24.30;69.80
22456;DHT22;11395;53.204;6.502;2022-10-28T05:57:02;24.30;69.70
22456;DHT22;11395;53.204;6.502;2022-10-28T05:59:28;24.30;69.80
22456;DHT22;11395;53.204;6.502;2022-10-28T06:01:55;24.30;69.80
22456;DHT22;11395;53.204;6.502;2022-10-28T06:04:21;24.40;69.80
22456;DHT22;11395;53.204;6.502;2022-10-28T06:06:47;24.40;69.80
22456;DHT22;11395;53.204;6.502;2022-10-28T06:09:13;24.40;69.80
22456;DHT22;11395;53.204;6.502;2022-10-28T06:11:40;24.40;69.80
22456;DHT22;11395;53.204;6.502;2022-10-28T06:14:06;24.40;69.70
22456;DHT22;11395;53.204;6.502;2022-10-28T06:16:32;24.40;69.80
22456;DHT22;11395;53.204;6.502;2022-10-28T06:18:58;24.40;69.80
22456;DHT22;11395;53.204;6.502;2022-10-28T06:21:24;24.40;69.60
22456;DHT22;11395;53.204;6.502;2022-10-28T06:23:51;24.40;69.70
22456;DHT22;11395;53.204;6.502;2022-10-28T06:26:18;24.40;69.70
22456;DHT22;11395;53.204;6.502;2022-10-28T06:28:46;24.40;70.00
22456;DHT22;11395;53.204;6.502;2022-10-28T06:31:13;24.40;69.80
22456;DHT22;11395;53.204;6.502;2022-10-28T06:33:39;24.30;69.70
22456;DHT22;11395;53.204;6.502;2022-10-28T06:36:06;24.40;69.80
22456;DHT22;11395;53.204;6.502;2022-10-28T06:38:32;24.30;69.80
22456;DHT22;11395;53.204;6.502;2022-10-28T06:40:58;24.30;69.60
22456;DHT22;11395;53.204;6.502;2022-10-28T06:43:25;24.40;69.80
22456;DHT22;11395;53.204;6.502;2022-10-28T06:45:51;24.30;69.60
22456;DHT22;11395;53.204;6.502;2022-10-28T06:48:22;24.30;69.60
22456;DHT22;11395;53.204;6.502;2022-10-28T06:50:48;24.30;69.60
22456;DHT22;11395;53.204;6.502;2022-10-28T06:53:14;24.30;69.60
22456;DHT22;11395;53.204;6.502;2022-10-28T06:55:41;24.30;69.50
22456;DHT22;11395;53.204;6.502;2022-10-28T06:58:08;24.20;69.50
22456;DHT22;11395;53.204;6.502;2022-10-28T07:00:34;24.20;69.40
22456;DHT22;11395;53.204;6.502;2022-10-28T07:03:00;24.20;69.60
22456;DHT22;11395;53.204;6.502;2022-10-28T07:05:27;24.20;69.40
22456;DHT22;11395;53.204;6.502;2022-10-28T07:07:53;24.20;69.40
22456;DHT22;11395;53.204;6.502;2022-10-28T07:10:19;24.20;69.50
22456;DHT22;11395;53.204;6.502;2022-10-28T07:12:46;24.20;69.60
22456;DHT22;11395;53.204;6.502;2022-10-28T07:15:12;24.20;70.10
22456;DHT22;11395;53.204;6.502;2022-10-28T07:17:38;24.30;69.60
22456;DHT22;11395;53.204;6.502;2022-10-28T07:20:05;24.30;69.60
22456;DHT22;11395;53.204;6.502;2022-10-28T07:22:31;24.30;69.70
22456;DHT22;11395;53.204;6.502;2022-10-28T07:24:57;24.40;69.70
22456;DHT22;11395;53.204;6.502;2022-10-28T07:27:23;24.40;69.70
22456;DHT22;11395;53.204;6.502;2022-10-28T07:29:50;24.40;69.50
22456;DHT22;11395;53.204;6.502;2022-10-28T07:32:16;24.40;69.60
22456;DHT22;11395;53.204;6.502;2022-10-28T07:34:42;24.40;69.50
22456;DHT22;11395;53.204;6.502;2022-10-28T07:37:10;24.50;69.50
22456;DHT22;11395;53.204;6.502;2022-10-28T07:39:37;24.50;69.50
22456;DHT22;11395;53.204;6.502;2022-10-28T07:42:04;24.50;69.30
22456;DHT22;11395;53.204;6.502;2022-10-28T07:44:30;24.60;69.60
22456;DHT22;11395;53.204;6.502;2022-10-28T07:46:56;24.60;69.40
22456;DHT22;11395;53.204;6.502;2022-10-28T07:49:22;24.60;69.30
22456;DHT22;11395;53.204;6.502;2022-10-28T07:51:49;24.60;69.20
22456;DHT22;11395;53.204;6.502;2022-10-28T07:54:16;24.60;69.30
22456;DHT22;11395;53.204;6.502;2022-10-28T07:56:42;24.60;69.20
22456;DHT22;11395;53.204;6.502;2022-10-28T07:59:10;24.60;69.30
22456;DHT22;11395;53.204;6.502;2022-10-28T08:01:36;24.60;69.20
22456;DHT22;11395;53.204;6.502;2022-10-28T08:04:03;24.60;69.30
22456;DHT22;11395;53.204;6.502;2022-10-28T08:06:29;24.60;69.30
22456;DHT22;11395;53.204;6.502;2022-10-28T08:08:56;24.60;69.20
22456;DHT22;11395;53.204;6.502;2022-10-28T08:11:22;24.60;69.30
22456;DHT22;11395;53.204;6.502;2022-10-28T08:13:50;24.60;69.30
22456;DHT22;11395;53.204;6.502;2022-10-28T08:16:16;24.60;69.40
22456;DHT22;11395;53.204;6.502;2022-10-28T08:18:43;24.60;69.30
22456;DHT22;11395;53.204;6.502;2022-10-28T08:21:11;24.60;69.40
22456;DHT22;11395;53.204;6.502;2022-10-28T08:23:38;24.60;69.30
22456;DHT22;11395;53.204;6.502;2022-10-28T08:26:05;24.60;69.40
22456;DHT22;11395;53.204;6.502;2022-10-28T08:28:31;24.60;69.40
22456;DHT22;11395;53.204;6.502;2022-10-28T08:31:01;24.60;69.40
22456;DHT22;11395;53.204;6.502;2022-10-28T08:33:30;24.60;69.50
22456;DHT22;11395;53.204;6.502;2022-10-28T08:35:57;24.70;69.50
22456;DHT22;11395;53.204;6.502;2022-10-28T08:38:23;24.60;69.40
22456;DHT22;11395;53.204;6.502;2022-10-28T08:43:31;24.70;69.50
22456;DHT22;11395;53.204;6.502;2022-10-28T08:46:27;24.70;69.40
22456;DHT22;11395;53.204;6.502;2022-10-28T08:48:56;24.70;69.30
22456;DHT22;11395;53.204;6.502;2022-10-28T08:51:50;24.70;69.60
22456;DHT22;11395;53.204;6.502;2022-10-28T08:54:26;24.70;69.70
22456;DHT22;11395;53.204;6.502;2022-10-28T08:56:57;24.70;69.40
22456;DHT22;11395;53.204;6.502;2022-10-28T08:59:34;24.70;69.70
22456;DHT22;11395;53.204;6.502;2022-10-28T09:04:37;24.70;69.60
22456;DHT22;11395;53.204;6.502;2022-10-28T09:07:08;24.70;69.60
22456;DHT22;11395;53.204;6.502;2022-10-28T09:09:38;24.70;69.50
22456;DHT22;11395;53.204;6.502;2022-10-28T09:15:43;24.70;69.40
22456;DHT22;11395;53.204;6.502;2022-10-28T09:20:56;24.70;69.40
22456;DHT22;11395;53.204;6.502;2022-10-28T09:23:35;24.60;69.40
22456;DHT22;11395;53.204;6.502;2022-10-28T09:31:57;24.60;69.50
22456;DHT22;11395;53.204;6.502;2022-10-28T09:34:46;24.60;69.50
22456;DHT22;11395;53.204;6.502;2022-10-28T09:37:21;24.60;69.50
22456;DHT22;11395;53.204;6.502;2022-10-28T09:39:52;24.50;69.60
22456;DHT22;11395;53.204;6.502;2022-10-28T09:42:31;24.50;69.60
22456;DHT22;11395;53.204;6.502;2022-10-28T09:45:03;24.50;69.70
22456;DHT22;11395;53.204;6.502;2022-10-28T09:47:39;24.50;70.50
22456;DHT22;11395;53.204;6.502;2022-10-28T09:50:14;24.50;69.80
22456;DHT22;11395;53.204;6.502;2022-10-28T09:53:15;24.50;69.80
22456;DHT22;11395;53.204;6.502;2022-10-28T09:55:45;24.50;69.80
22456;DHT22;11395;53.204;6.502;2022-10-28T09:58:12;24.50;69.90
22456;DHT22;11395;53.204;6.502;2022-10-28T10:00:39;24.60;70.00
22456;DHT22;11395;53.204;6.502;2022-10-28T10:03:05;24.60;70.00
22456;DHT22;11395;53.204;6.502;2022-10-28T10:05:33;24.70;70.00
22456;DHT22;11395;53.204;6.502;2022-10-28T10:08:04;24.70;70.00
22456;DHT22;11395;53.204;6.502;2022-10-28T10:10:35;24.80;70.00
22456;DHT22;11395;53.204;6.502;2022-10-28T10:13:06;24.80;69.90
22456;DHT22;11395;53.204;6.502;2022-10-28T10:15:44;24.90;69.90
22456;DHT22;11395;53.204;6.502;2022-10-28T10:18:15;24.90;69.80
22456;DHT22;11395;53.204;6.502;2022-10-28T10:21:00;25.00;69.80
22456;DHT22;11395;53.204;6.502;2022-10-28T10:23:34;25.10;69.70
22456;DHT22;11395;53.204;6.502;2022-10-28T10:26:08;25.10;69.60
22456;DHT22;11395;53.204;6.502;2022-10-28T10:28:48;25.10;69.50
22456;DHT22;11395;53.204;6.502;2022-10-28T10:31:34;25.20;69.60
22456;DHT22;11395;53.204;6.502;2022-10-28T10:34:01;25.20;69.40
22456;DHT22;11395;53.204;6.502;2022-10-28T10:36:27;25.30;69.40
22456;DHT22;11395;53.204;6.502;2022-10-28T10:39:01;25.30;69.30
22456;DHT22;11395;53.204;6.502;2022-10-28T10:41:42;25.30;69.30
22456;DHT22;11395;53.204;6.502;2022-10-28T10:49:30;25.30;68.90
22456;DHT22;11395;53.204;6.502;2022-10-28T10:52:01;25.40;69.00
22456;DHT22;11395;53.204;6.502;2022-10-28T10:54:30;25.40;69.10
22456;DHT22;11395;53.204;6.502;2022-10-28T10:57:09;25.40;69.10
22456;DHT22;11395;53.204;6.502;2022-10-28T10:59:44;25.40;69.10
22456;DHT22;11395;53.204;6.502;2022-10-28T11:02:38;25.40;69.20
22456;DHT22;11395;53.204;6.502;2022-10-28T11:05:09;25.50;69.10
22456;DHT22;11395;53.204;6.502;2022-10-28T11:07:37;25.40;69.00
22456;DHT22;11395;53.204;6.502;2022-10-28T11:10:06;25.40;68.90
22456;DHT22;11395;53.204;6.502;2022-10-28T11:12:56;25.40;68.90
22456;DHT22;11395;53.204;6.502;2022-10-28T11:15:26;25.50;69.10
22456;DHT22;11395;53.204;6.502;2022-10-28T11:20:40;25.50;69.10
22456;DHT22;11395;53.204;6.502;2022-10-28T11:26:12;25.50;69.00
22456;DHT22;11395;53.204;6.502;2022-10-28T11:29:09;25.50;69.10
22456;DHT22;11395;53.204;6.502;2022-10-28T11:48:49;25.70;69.10
22456;DHT22;11395;53.204;6.502;2022-10-28T11:56:47;25.60;68.90
22456;DHT22;11395;53.204;6.502;2022-10-28T12:10:26;25.60;68.90
22456;DHT22;11395;53.204;6.502;2022-10-28T12:18:34;25.60;68.90
22456;DHT22;11395;53.204;6.502;2022-10-28T12:23:48;25.50;68.80
22456;DHT22;11395;53.204;6.502;2022-10-28T12:26:17;25.50;68.70
22456;DHT22;11395;53.204;6.502;2022-10-28T12:28:49;25.50;68.60
22456;DHT22;11395;53.204;6.502;2022-10-28T12:31:22;25.60;68.90
22456;DHT22;11395;53.204;6.502;2022-10-28T12:33:52;25.60;68.80
22456;DHT22;11395;53.204;6.502;2022-10-28T12:36:30;25.60;68.70
22456;DHT22;11395;53.204;6.502;2022-10-28T12:42:02;25.60;68.50
22456;DHT22;11395;53.204;6.502;2022-10-28T12:44:32;25.60;68.70
22456;DHT22;11395;53.204;6.502;2022-10-28T12:55:23;25.60;68.40
22456;DHT22;11395;53.204;6.502;2022-10-28T13:00:53;25.50;68.30
22456;DHT22;11395;53.204;6.502;2022-10-28T13:03:20;25.50;68.50
22456;DHT22;11395;53.204;6.502;2022-10-28T13:08:47;25.50;68.50
22456;DHT22;11395;53.204;6.502;2022-10-28T13:28:47;25.70;68.40
22456;DHT22;11395;53.204;6.502;2022-10-28T13:31:18;25.70;68.20
22456;DHT22;11395;53.204;6.502;2022-10-28T13:33:58;25.80;68.40
22456;DHT22;11395;53.204;6.502;2022-10-28T13:36:39;25.80;68.00
22456;DHT22;11395;53.204;6.502;2022-10-28T13:44:55;25.90;67.80
22456;DHT22;11395;53.204;6.502;2022-10-28T13:47:25;25.90;67.50
22456;DHT22;11395;53.204;6.502;2022-10-28T13:50:08;25.90;67.50
22456;DHT22;11395;53.204;6.502;2022-10-28T13:52:43;25.80;67.20
22456;DHT22;11395;53.204;6.502;2022-10-28T13:57:42;25.80;67.10
22456;DHT22;11395;53.204;6.502;2022-10-28T14:02:59;25.80;67.60
22456;DHT22;11395;53.204;6.502;2022-10-28T14:08:06;25.70;67.60
22456;DHT22;11395;53.204;6.502;2022-10-28T14:10:36;25.70;67.80
22456;DHT22;11395;53.204;6.502;2022-10-28T14:13:18;25.60;68.50
22456;DHT22;11395;53.204;6.502;2022-10-28T14:15:45;25.60;69.00
22456;DHT22;11395;53.204;6.502;2022-10-28T14:44:30;25.30;70.80
22456;DHT22;11395;53.204;6.502;2022-10-28T14:47:22;25.30;70.80
22456;DHT22;11395;53.204;6.502;2022-10-28T14:50:00;25.30;70.60
22456;DHT22;11395;53.204;6.502;2022-10-28T14:52:29;25.30;70.70
22456;DHT22;11395;53.204;6.502;2022-10-28T14:55:01;25.30;70.70
22456;DHT22;11395;53.204;6.502;2022-10-28T14:57:30;25.30;70.60
22456;DHT22;11395;53.204;6.502;2022-10-28T15:00:04;25.30;70.50
22456;DHT22;11395;53.204;6.502;2022-10-28T15:02:32;25.20;70.50
22456;DHT22;11395;53.204;6.502;2022-10-28T15:05:15;25.20;70.60
22456;DHT22;11395;53.204;6.502;2022-10-28T15:07:42;25.20;70.60
22456;DHT22;11395;53.204;6.502;2022-10-28T15:13:25;25.20;70.40
22456;DHT22;11395;53.204;6.502;2022-10-28T15:15:54;25.20;70.10
22456;DHT22;11395;53.204;6.502;2022-10-28T15:18:24;25.20;69.90
22456;DHT22;11395;53.204;6.502;2022-10-28T15:21:17;25.20;69.80
22456;DHT22;11395;53.204;6.502;2022-10-28T15:24:00;25.20;69.30
22456;DHT22;11395;53.204;6.502;2022-10-28T15:26:43;25.30;69.20
22456;DHT22;11395;53.204;6.502;2022-10-28T15:29:18;25.30;69.70
22456;DHT22;11395;53.204;6.502;2022-10-28T15:34:37;25.40;70.40
22456;DHT22;11395;53.204;6.502;2022-10-28T15:37:03;25.40;70.50
22456;DHT22;11395;53.204;6.502;2022-10-28T15:39:30;25.40;70.00
22456;DHT22;11395;53.204;6.502;2022-10-28T15:41:56;25.40;69.20
22456;DHT22;11395;53.204;6.502;2022-10-28T15:44:27;25.40;68.90
22456;DHT22;11395;53.204;6.502;2022-10-28T15:46:55;25.30;68.60
22456;DHT22;11395;53.204;6.502;2022-10-28T15:54:55;25.30;69.00
22456;DHT22;11395;53.204;6.502;2022-10-28T15:57:29;25.30;69.00
22456;DHT22;11395;53.204;6.502;2022-10-28T16:00:25;25.30;69.00
22456;DHT22;11395;53.204;6.502;2022-10-28T16:03:00;25.30;69.00
22456;DHT22;11395;53.204;6.502;2022-10-28T16:08:00;25.10;69.30
22456;DHT22;11395;53.204;6.502;2022-10-28T16:10:33;25.10;70.10
22456;DHT22;11395;53.204;6.502;2022-10-28T16:13:01;25.10;70.30
22456;DHT22;11395;53.204;6.502;2022-10-28T16:15:28;25.10;70.40
22456;DHT22;11395;53.204;6.502;2022-10-28T16:17:54;25.10;70.50
22456;DHT22;11395;53.204;6.502;2022-10-28T16:20:24;25.10;70.70
22456;DHT22;11395;53.204;6.502;2022-10-28T16:22:52;25.00;70.70
22456;DHT22;11395;53.204;6.502;2022-10-28T16:25:20;25.00;70.90
22456;DHT22;11395;53.204;6.502;2022-10-28T16:27:50;24.90;70.90
22456;DHT22;11395;53.204;6.502;2022-10-28T16:30:16;24.90;70.70
22456;DHT22;11395;53.204;6.502;2022-10-28T16:32:45;24.90;70.90
22456;DHT22;11395;53.204;6.502;2022-10-28T16:35:15;24.90;71.30
22456;DHT22;11395;53.204;6.502;2022-10-28T16:37:42;24.90;71.60
22456;DHT22;11395;53.204;6.502;2022-10-28T16:40:11;24.90;71.70
22456;DHT22;11395;53.204;6.502;2022-10-28T16:42:38;24.90;71.80
22456;DHT22;11395;53.204;6.502;2022-10-28T16:45:15;24.90;71.50
22456;DHT22;11395;53.204;6.502;2022-10-28T16:47:44;24.90;71.30
22456;DHT22;11395;53.204;6.502;2022-10-28T16:50:13;24.80;71.60
22456;DHT22;11395;53.204;6.502;2022-10-28T16:52:40;24.70;71.50
22456;DHT22;11395;53.204;6.502;2022-10-28T16:55:14;24.70;71.60
22456;DHT22;11395;53.204;6.502;2022-10-28T16:57:44;24.70;71.60
22456;DHT22;11395;53.204;6.502;2022-10-28T17:00:12;24.70;71.60
22456;DHT22;11395;53.204;6.502;2022-10-28T17:02:44;24.70;71.70
22456;DHT22;11395;53.204;6.502;2022-10-28T17:05:21;24.60;71.70
22456;DHT22;11395;53.204;6.502;2022-10-28T17:07:48;24.60;71.90
22456;DHT22;11395;53.204;6.502;2022-10-28T17:10:16;24.60;72.00
22456;DHT22;11395;53.204;6.502;2022-10-28T17:12:42;24.50;72.00
22456;DHT22;11395;53.204;6.502;2022-10-28T17:15:09;24.50;72.10
22456;DHT22;11395;53.204;6.502;2022-10-28T17:17:35;24.50;72.10
22456;DHT22;11395;53.204;6.502;2022-10-28T17:20:02;24.40;72.00
22456;DHT22;11395;53.204;6.502;2022-10-28T17:22:29;24.40;72.10
22456;DHT22;11395;53.204;6.502;2022-10-28T17:24:55;24.50;72.10
22456;DHT22;11395;53.204;6.502;2022-10-28T17:27:22;24.40;72.10
22456;DHT22;11395;53.204;6.502;2022-10-28T17:29:48;24.40;72.10
22456;DHT22;11395;53.204;6.502;2022-10-28T17:32:14;24.40;72.10
22456;DHT22;11395;53.204;6.502;2022-10-28T17:34:41;24.40;72.40
22456;DHT22;11395;53.204;6.502;2022-10-28T17:37:07;24.30;72.60
22456;DHT22;11395;53.204;6.502;2022-10-28T17:39:34;24.30;72.90
22456;DHT22;11395;53.204;6.502;2022-10-28T17:42:00;24.30;72.80
22456;DHT22;11395;53.204;6.502;2022-10-28T17:44:26;24.30;72.90
22456;DHT22;11395;53.204;6.502;2022-10-28T17:46:52;24.20;73.00
22456;DHT22;11395;53.204;6.502;2022-10-28T17:49:18;24.20;73.20
22456;DHT22;11395;53.204;6.502;2022-10-28T17:51:45;24.20;73.30
22456;DHT22;11395;53.204;6.502;2022-10-28T17:54:11;24.20;73.50
22456;DHT22;11395;53.204;6.502;2022-10-28T17:56:37;24.20;73.80
22456;DHT22;11395;53.204;6.502;2022-10-28T17:59:06;24.20;74.00
22456;DHT22;11395;53.204;6.502;2022-10-28T18:01:34;24.20;73.80
22456;DHT22;11395;53.204;6.502;2022-10-28T18:04:00;24.20;73.80
22456;DHT22;11395;53.204;6.502;2022-10-28T18:06:28;24.20;73.80
22456;DHT22;11395;53.204;6.502;2022-10-28T18:08:54;24.20;73.60
22456;DHT22;11395;53.204;6.502;2022-10-28T18:11:21;24.20;73.70
22456;DHT22;11395;53.204;6.502;2022-10-28T18:13:48;24.20;73.70
22456;DHT22;11395;53.204;6.502;2022-10-28T18:16:21;24.20;73.60
22456;DHT22;11395;53.204;6.502;2022-10-28T18:18:49;24.20;73.60
22456;DHT22;11395;53.204;6.502;2022-10-28T18:21:16;24.20;73.50
22456;DHT22;11395;53.204;6.502;2022-10-28T18:23:43;24.30;73.60
22456;DHT22;11395;53.204;6.502;2022-10-28T18:26:11;24.20;73.50
22456;DHT22;11395;53.204;6.502;2022-10-28T18:28:38;24.20;73.60
22456;DHT22;11395;53.204;6.502;2022-10-28T18:31:14;24.20;73.50
22456;DHT22;11395;53.204;6.502;2022-10-28T18:33:41;24.20;73.40
22456;DHT22;11395;53.204;6.502;2022-10-28T18:36:19;24.20;73.00
22456;DHT22;11395;53.204;6.502;2022-10-28T18:38:46;24.20;73.30
22456;DHT22;11395;53.204;6.502;2022-10-28T18:41:15;24.20;73.30
22456;DHT22;11395;53.204;6.502;2022-10-28T18:43:42;24.20;73.30
22456;DHT22;11395;53.204;6.502;2022-10-28T18:46:09;24.20;73.40
22456;DHT22;11395;53.204;6.502;2022-10-28T18:48:35;24.10;73.40
22456;DHT22;11395;53.204;6.502;2022-10-28T18:51:04;24.10;73.50
22456;DHT22;11395;53.204;6.502;2022-10-28T18:53:36;24.10;73.10
22456;DHT22;11395;53.204;6.502;2022-10-28T18:56:07;24.10;73.00
22456;DHT22;11395;53.204;6.502;2022-10-28T18:58:34;24.10;72.90
22456;DHT22;11395;53.204;6.502;2022-10-28T19:01:09;24.10;72.90
22456;DHT22;11395;53.204;6.502;2022-10-28T19:03:36;24.10;73.00
22456;DHT22;11395;53.204;6.502;2022-10-28T19:06:06;24.10;72.90
22456;DHT22;11395;53.204;6.502;2022-10-28T19:08:33;24.10;72.90
22456;DHT22;11395;53.204;6.502;2022-10-28T19:11:01;24.10;73.50
22456;DHT22;11395;53.204;6.502;2022-10-28T19:13:28;24.10;72.80
22456;DHT22;11395;53.204;6.502;2022-10-28T19:15:54;24.10;72.80
22456;DHT22;11395;53.204;6.502;2022-10-28T19:18:20;24.10;72.90
22456;DHT22;11395;53.204;6.502;2022-10-28T19:20:47;24.10;72.80